createdAt,value
2018-10-06T00:02:05.447Z,11.00
2018-10-06T00:04:34.364Z,11.00
2018-10-06T00:07:03.295Z,11.00
2018-10-06T00:09:32.252Z,11.00
2018-10-06T00:12:01.140Z,11.00
2018-10-06T00:14:30.104Z,11.00
2018-10-06T00:16:59.023Z,11.00
2018-10-06T00:19:27.990Z,11.10
2018-10-06T00:21:56.916Z,11.10
2018-10-06T00:24:25.812Z,11.10
2018-10-06T00:26:55.438Z,11.00
2018-10-06T00:29:24.361Z,11.00
2018-10-06T00:31:53.261Z,10.90
2018-10-06T00:34:22.355Z,10.90
2018-10-06T00:36:51.249Z,10.80
2018-10-06T00:39:20.217Z,10.80
2018-10-06T00:41:49.296Z,10.70
2018-10-06T00:44:18.207Z,10.70
2018-10-06T00:46:47.539Z,10.70
2018-10-06T00:49:16.457Z,10.70
2018-10-06T00:51:45.389Z,10.70
2018-10-06T00:54:14.309Z,10.70
2018-10-06T00:56:43.258Z,10.70
2018-10-06T00:59:12.191Z,10.70
2018-10-06T01:01:41.085Z,10.70
2018-10-06T01:04:10.122Z,10.60
2018-10-06T01:06:39.047Z,10.60
2018-10-06T01:09:09.083Z,10.50
2018-10-06T01:11:38.022Z,10.50
2018-10-06T01:14:06.916Z,10.50
2018-10-06T01:16:36.114Z,10.50
2018-10-06T01:19:05.629Z,10.50
2018-10-06T01:21:34.579Z,10.40
2018-10-06T01:24:03.519Z,10.40
2018-10-06T01:26:32.400Z,10.40
2018-10-06T01:29:01.347Z,10.40
2018-10-06T01:31:30.249Z,10.40
2018-10-06T01:33:59.159Z,10.40
2018-10-06T01:36:28.077Z,10.50
2018-10-06T01:38:57.006Z,10.60
2018-10-06T01:41:25.948Z,10.70
2018-10-06T01:43:54.877Z,10.70
2018-10-06T01:46:23.798Z,10.80
2018-10-06T01:48:52.723Z,10.80
2018-10-06T01:51:21.608Z,10.90
2018-10-06T01:53:50.532Z,11.00
2018-10-06T01:56:19.445Z,11.10
2018-10-06T01:58:48.347Z,11.10
2018-10-06T02:01:17.261Z,11.10
2018-10-06T02:03:46.194Z,11.20
2018-10-06T02:06:15.121Z,11.20
2018-10-06T02:08:44.019Z,11.30
2018-10-06T02:11:13.133Z,11.30
2018-10-06T02:13:42.042Z,11.50
2018-10-06T02:16:10.989Z,11.50
2018-10-06T02:18:39.890Z,11.60
2018-10-06T02:21:08.859Z,11.70
2018-10-06T02:23:37.782Z,11.70
2018-10-06T02:26:06.900Z,11.70
2018-10-06T02:28:35.797Z,11.80
2018-10-06T02:31:04.694Z,11.80
2018-10-06T02:33:33.610Z,11.80
2018-10-06T02:36:02.580Z,11.80
2018-10-06T02:38:31.494Z,11.90
2018-10-06T02:41:00.399Z,11.90
2018-10-06T02:43:29.297Z,11.90
2018-10-06T02:45:58.665Z,11.90
2018-10-06T02:48:27.655Z,11.90
2018-10-06T02:50:56.583Z,11.90
2018-10-06T02:53:25.490Z,12.00
2018-10-06T02:55:54.426Z,11.90
2018-10-06T02:58:23.334Z,12.00
2018-10-06T03:00:52.290Z,12.00
2018-10-06T03:03:21.242Z,12.00
2018-10-06T03:05:50.161Z,11.90
2018-10-06T03:08:19.072Z,11.80
2018-10-06T03:10:47.977Z,11.90
2018-10-06T03:13:16.881Z,11.80
2018-10-06T03:15:45.813Z,11.80
2018-10-06T03:18:14.753Z,11.80
2018-10-06T03:20:43.649Z,11.70
2018-10-06T03:23:12.562Z,11.80
2018-10-06T03:25:41.481Z,11.80
2018-10-06T03:28:10.401Z,11.80
2018-10-06T03:30:39.334Z,11.80
2018-10-06T03:33:08.234Z,11.70
2018-10-06T03:35:37.159Z,11.80
2018-10-06T03:38:06.120Z,11.80
2018-10-06T03:40:35.047Z,11.80
2018-10-06T03:43:03.947Z,11.80
2018-10-06T03:45:32.880Z,11.90
2018-10-06T03:48:01.807Z,11.90
2018-10-06T03:50:30.701Z,11.90
2018-10-06T03:52:59.629Z,11.90
2018-10-06T03:55:28.533Z,11.80
2018-10-06T03:57:57.511Z,11.80
2018-10-06T04:00:26.463Z,11.80
2018-10-06T04:02:55.377Z,11.80
2018-10-06T04:05:24.296Z,11.80
2018-10-06T04:07:53.241Z,11.80
2018-10-06T04:10:22.152Z,11.70
2018-10-06T04:12:51.084Z,11.70
2018-10-06T04:15:20.034Z,11.70
2018-10-06T04:17:48.966Z,11.70
2018-10-06T04:20:17.864Z,11.70
2018-10-06T04:22:46.814Z,11.70
2018-10-06T04:25:15.724Z,11.70
2018-10-06T04:27:44.625Z,11.70
2018-10-06T04:30:13.576Z,11.70
2018-10-06T04:32:42.474Z,11.70
2018-10-06T04:35:11.391Z,11.60
2018-10-06T04:37:40.321Z,11.60
2018-10-06T04:40:09.248Z,11.60
2018-10-06T04:42:38.166Z,11.60
2018-10-06T04:45:07.410Z,11.50
2018-10-06T04:47:36.308Z,11.50
2018-10-06T04:50:05.354Z,11.50
2018-10-06T04:52:34.291Z,11.50
2018-10-06T04:55:03.256Z,11.50
2018-10-06T04:57:32.161Z,11.50
2018-10-06T05:00:01.075Z,11.40
2018-10-06T05:02:29.998Z,11.40
2018-10-06T05:04:58.895Z,11.40
2018-10-06T05:07:27.789Z,11.40
2018-10-06T05:09:56.773Z,11.40
2018-10-06T05:12:25.664Z,11.40
2018-10-06T05:14:54.587Z,11.40
2018-10-06T05:17:23.517Z,11.40
2018-10-06T05:19:52.413Z,11.40
2018-10-06T05:22:21.335Z,11.40
2018-10-06T05:24:50.247Z,11.40
2018-10-06T05:27:19.169Z,11.40
2018-10-06T05:29:48.089Z,11.50
2018-10-06T05:32:16.997Z,11.50
2018-10-06T05:34:46.027Z,11.50
2018-10-06T05:37:14.919Z,11.60
2018-10-06T05:39:43.841Z,11.60
2018-10-06T05:42:12.767Z,11.60
2018-10-06T05:44:41.709Z,11.70
2018-10-06T05:47:10.674Z,11.70
2018-10-06T05:49:39.582Z,11.70
2018-10-06T05:52:08.513Z,11.80
2018-10-06T05:54:37.461Z,11.80
2018-10-06T05:57:06.719Z,11.80
2018-10-06T05:59:35.657Z,11.80
2018-10-06T06:02:04.680Z,11.80
2018-10-06T06:04:33.615Z,11.90
2018-10-06T06:07:02.583Z,11.90
2018-10-06T06:09:31.541Z,11.90
2018-10-06T06:12:00.464Z,11.90
2018-10-06T06:14:29.426Z,11.90
2018-10-06T06:16:58.314Z,12.00
2018-10-06T06:19:27.226Z,12.00
2018-10-06T06:21:56.133Z,12.10
2018-10-06T06:24:25.080Z,12.10
2018-10-06T06:26:54.684Z,12.20
2018-10-06T06:29:23.594Z,12.30
2018-10-06T06:31:52.472Z,12.40
2018-10-06T06:34:21.460Z,12.40
2018-10-06T06:36:50.352Z,12.50
2018-10-06T06:39:19.324Z,12.60
2018-10-06T06:41:48.222Z,12.70
2018-10-06T06:44:17.252Z,12.70
2018-10-06T06:46:46.306Z,12.80
2018-10-06T06:49:15.231Z,12.90
2018-10-06T06:51:44.134Z,12.90
2018-10-06T06:54:13.118Z,12.90
2018-10-06T06:56:42.106Z,12.90
2018-10-06T06:59:11.130Z,12.90
2018-10-06T07:01:40.062Z,13.00
2018-10-06T07:04:09.021Z,13.00
2018-10-06T07:06:38.041Z,13.10
2018-10-06T07:09:07.896Z,13.20
2018-10-06T07:11:36.863Z,13.30
2018-10-06T07:14:06.155Z,13.30
2018-10-06T07:16:35.092Z,13.40
2018-10-06T07:19:04.049Z,13.40
2018-10-06T07:21:32.979Z,13.50
2018-10-06T07:24:01.961Z,13.50
2018-10-06T07:26:30.893Z,13.60
2018-10-06T07:28:59.838Z,13.70
2018-10-06T07:31:28.764Z,13.70
2018-10-06T07:33:57.687Z,13.80
2018-10-06T07:36:26.626Z,13.90
2018-10-06T07:38:55.521Z,14.00
2018-10-06T07:41:24.456Z,14.00
2018-10-06T07:43:53.554Z,14.10
2018-10-06T07:46:22.702Z,14.10
2018-10-06T07:48:51.752Z,14.20
2018-10-06T07:51:20.702Z,14.20
2018-10-06T07:53:49.618Z,14.20
2018-10-06T07:56:18.592Z,14.30
2018-10-06T07:58:47.544Z,14.40
2018-10-06T08:01:16.672Z,14.50
2018-10-06T08:03:45.616Z,14.60
2018-10-06T08:06:14.946Z,14.70
2018-10-06T08:08:44.058Z,14.80
2018-10-06T08:11:13.075Z,14.90
2018-10-06T08:13:42.005Z,14.90
2018-10-06T08:16:10.940Z,15.00
2018-10-06T08:18:40.022Z,15.10
2018-10-06T08:21:09.007Z,15.20
2018-10-06T08:23:37.961Z,15.30
2018-10-06T08:26:07.046Z,15.30
2018-10-06T08:28:35.990Z,15.30
2018-10-06T08:31:04.930Z,15.40
2018-10-06T08:33:33.861Z,15.40
2018-10-06T08:36:02.831Z,15.40
2018-10-06T08:38:31.774Z,15.50
2018-10-06T08:41:00.742Z,15.60
2018-10-06T08:43:29.684Z,15.60
2018-10-06T08:45:58.629Z,15.70
2018-10-06T08:48:27.560Z,15.70
2018-10-06T08:50:56.476Z,15.70
2018-10-06T08:53:25.418Z,15.70
2018-10-06T08:55:54.408Z,15.70
2018-10-06T08:58:23.601Z,15.80
2018-10-06T09:00:52.532Z,15.80
2018-10-06T09:03:21.494Z,15.90
2018-10-06T09:05:50.451Z,16.00
2018-10-06T09:08:19.367Z,16.00
2018-10-06T09:10:48.309Z,16.20
2018-10-06T09:13:17.436Z,16.30
2018-10-06T09:15:46.361Z,16.40
2018-10-06T09:18:15.317Z,16.40
2018-10-06T09:20:44.271Z,16.50
2018-10-06T09:23:13.250Z,16.60
2018-10-06T09:25:42.194Z,16.60
2018-10-06T09:28:11.302Z,16.70
2018-10-06T09:30:40.432Z,16.70
2018-10-06T09:33:09.522Z,16.80
2018-10-06T09:35:38.577Z,16.80
2018-10-06T09:38:07.538Z,16.80
2018-10-06T09:40:36.533Z,16.90
2018-10-06T09:43:05.510Z,17.00
2018-10-06T09:45:34.499Z,17.20
2018-10-06T09:48:03.523Z,17.30
2018-10-06T09:50:32.669Z,17.50
2018-10-06T09:53:01.651Z,17.60
2018-10-06T09:55:30.682Z,17.80
2018-10-06T09:57:59.645Z,18.00
2018-10-06T10:00:33.825Z,18.10
2018-10-06T10:03:07.889Z,18.20
2018-10-06T10:05:42.191Z,18.30
2018-10-06T10:08:11.384Z,18.40
2018-10-06T10:10:40.518Z,18.50
2018-10-06T10:13:09.826Z,18.60
2018-10-06T10:15:38.782Z,18.70
2018-10-06T10:18:07.806Z,18.80
2018-10-06T10:20:36.864Z,18.90
2018-10-06T10:23:06.058Z,19.00
2018-10-06T10:25:35.218Z,19.00
2018-10-06T10:28:04.706Z,19.10
2018-10-06T10:30:33.680Z,19.10
2018-10-06T10:33:02.612Z,19.20
2018-10-06T10:35:31.585Z,19.30
2018-10-06T10:38:00.513Z,19.30
2018-10-06T10:40:29.451Z,19.40
2018-10-06T10:42:58.410Z,19.50
2018-10-06T10:45:27.352Z,19.60
2018-10-06T10:47:56.294Z,19.60
2018-10-06T10:50:25.259Z,19.70
2018-10-06T10:52:54.247Z,19.80
2018-10-06T10:55:23.218Z,19.90
2018-10-06T10:57:52.382Z,20.00
2018-10-06T11:00:21.486Z,20.10
2018-10-06T11:02:50.653Z,20.20
2018-10-06T11:05:19.631Z,20.40
2018-10-06T11:07:48.545Z,20.50
2018-10-06T11:10:17.541Z,20.60
2018-10-06T11:12:46.454Z,20.70
2018-10-06T11:15:15.407Z,20.70
2018-10-06T11:17:44.373Z,20.80
2018-10-06T11:20:13.401Z,20.90
2018-10-06T11:22:42.306Z,21.00
2018-10-06T11:25:11.269Z,21.00
2018-10-06T11:27:40.275Z,21.00
2018-10-06T11:30:09.603Z,21.10
2018-10-06T11:32:38.534Z,21.10
2018-10-06T11:35:07.831Z,21.10
2018-10-06T11:37:36.819Z,21.10
2018-10-06T11:40:06.099Z,21.00
2018-10-06T11:42:35.035Z,20.90
2018-10-06T11:45:04.017Z,20.80
2018-10-06T11:47:32.666Z,20.70
2018-10-06T11:50:01.607Z,20.70
2018-10-06T11:52:30.662Z,20.70
2018-10-06T11:54:59.574Z,20.80
2018-10-06T11:57:28.505Z,20.90
2018-10-06T11:59:57.272Z,21.00
2018-10-06T12:02:26.063Z,21.00
2018-10-06T12:04:54.737Z,21.20
2018-10-06T12:07:23.868Z,21.30
2018-10-06T12:09:52.923Z,21.50
2018-10-06T12:12:21.542Z,21.60
2018-10-06T12:14:50.270Z,21.80
2018-10-06T12:17:18.926Z,22.00
2018-10-06T12:19:47.578Z,22.10
2018-10-06T12:22:16.211Z,22.20
2018-10-06T12:24:44.920Z,22.20
2018-10-06T12:27:13.548Z,22.20
2018-10-06T12:29:42.497Z,22.20
2018-10-06T12:32:11.146Z,22.30
2018-10-06T12:34:39.838Z,22.40
2018-10-06T12:37:08.596Z,22.40
2018-10-06T12:42:12.111Z,22.50
2018-10-06T12:44:40.906Z,22.60
2018-10-06T12:47:09.717Z,22.80
2018-10-06T12:49:38.521Z,22.90
2018-10-06T12:52:07.477Z,23.10
2018-10-06T12:54:36.129Z,23.30
2018-10-06T12:57:05.383Z,23.30
2018-10-06T12:59:34.063Z,23.40
2018-10-06T13:02:02.736Z,23.50
2018-10-06T13:04:31.496Z,23.40
2018-10-06T13:07:00.634Z,23.30
2018-10-06T13:09:29.236Z,23.10
2018-10-06T13:11:57.961Z,23.00
2018-10-06T13:14:26.769Z,22.80
2018-10-06T13:16:55.426Z,22.70
2018-10-06T13:19:24.108Z,22.50
2018-10-06T13:21:52.951Z,22.40
2018-10-06T13:24:21.633Z,22.40
2018-10-06T13:26:50.283Z,22.40
2018-10-06T13:29:18.952Z,22.40
2018-10-06T13:31:47.749Z,22.40
2018-10-06T13:34:16.545Z,22.50
2018-10-06T13:36:45.229Z,22.60
2018-10-06T13:39:13.884Z,22.70
2018-10-06T13:41:42.500Z,22.70
2018-10-06T13:44:11.513Z,22.80
2018-10-06T13:46:40.183Z,22.80
2018-10-06T13:49:09.007Z,22.80
2018-10-06T13:51:37.677Z,22.90
2018-10-06T13:54:06.349Z,22.90
2018-10-06T13:56:35.526Z,22.90
2018-10-06T13:59:04.308Z,23.00
2018-10-06T14:01:33.004Z,23.00
2018-10-06T14:04:01.684Z,23.10
2018-10-06T14:06:30.318Z,23.20
2018-10-06T14:08:58.992Z,23.20
2018-10-06T14:11:27.615Z,23.30
2018-10-06T14:13:56.266Z,23.30
2018-10-06T14:16:24.949Z,23.40
2018-10-06T14:18:53.906Z,23.40
2018-10-06T14:21:22.621Z,23.50
2018-10-06T14:23:51.291Z,23.60
2018-10-06T14:26:19.933Z,23.60
2018-10-06T14:28:48.749Z,23.70
2018-10-06T14:31:17.393Z,23.90
2018-10-06T14:33:46.024Z,24.00
2018-10-06T14:36:14.704Z,24.20
2018-10-06T14:38:43.316Z,24.50
2018-10-06T14:41:11.994Z,24.80
2018-10-06T14:43:40.624Z,25.00
2018-10-06T14:46:09.234Z,25.30
2018-10-06T14:48:37.857Z,25.60
2018-10-06T14:51:06.537Z,25.80
2018-10-06T14:53:35.160Z,26.00
2018-10-06T14:56:03.845Z,26.10
2018-10-06T14:58:32.494Z,26.10
2018-10-06T15:01:01.117Z,26.00
2018-10-06T15:03:29.725Z,25.90
2018-10-06T15:05:58.545Z,25.80
2018-10-06T15:08:27.168Z,25.60
2018-10-06T15:10:55.840Z,25.40
2018-10-06T15:13:31.174Z,25.20
2018-10-06T15:15:59.918Z,24.90
2018-10-06T15:18:28.729Z,24.60
2018-10-06T15:20:57.384Z,24.30
2018-10-06T15:23:26.001Z,24.00
2018-10-06T15:25:54.721Z,23.80
2018-10-06T15:28:23.409Z,23.50
2018-10-06T15:30:52.055Z,23.30
2018-10-06T15:33:20.688Z,23.10
2018-10-06T15:35:49.340Z,22.90
2018-10-06T15:38:18.065Z,22.70
2018-10-06T15:40:46.908Z,22.50
2018-10-06T15:43:15.547Z,22.40
2018-10-06T15:45:44.228Z,22.20
2018-10-06T15:48:12.890Z,22.10
2018-10-06T15:50:41.535Z,22.10
2018-10-06T15:53:10.162Z,22.00
2018-10-06T15:55:38.825Z,21.90
2018-10-06T15:58:07.534Z,21.80
2018-10-06T16:00:36.190Z,21.70
2018-10-06T16:03:05.141Z,21.60
2018-10-06T16:05:34.105Z,21.50
2018-10-06T16:08:03.078Z,21.40
2018-10-06T16:10:32.054Z,21.30
2018-10-06T16:13:00.698Z,21.20
2018-10-06T16:15:29.650Z,21.10
2018-10-06T16:17:58.788Z,21.00
2018-10-06T16:20:27.709Z,20.90
2018-10-06T16:22:56.678Z,20.80
2018-10-06T16:25:27.355Z,20.70
2018-10-06T16:27:56.369Z,20.70
2018-10-06T16:30:25.340Z,20.60
2018-10-06T16:32:54.363Z,20.50
2018-10-06T16:35:23.335Z,20.40
2018-10-06T16:37:52.225Z,20.30
2018-10-06T16:40:21.209Z,20.20
2018-10-06T16:42:50.173Z,20.10
2018-10-06T16:45:19.116Z,20.00
2018-10-06T16:47:48.142Z,19.90
2018-10-06T16:50:17.075Z,19.90
2018-10-06T16:52:46.006Z,19.80
2018-10-06T16:55:14.984Z,19.70
2018-10-06T16:57:43.938Z,19.70
2018-10-06T17:00:13.059Z,19.60
2018-10-06T17:02:42.176Z,19.60
2018-10-06T17:05:11.156Z,19.50
2018-10-06T17:07:40.149Z,19.40
2018-10-06T17:10:09.276Z,19.30
2018-10-06T17:12:38.492Z,19.30
2018-10-06T17:15:07.982Z,19.20
2018-10-06T17:17:38.066Z,19.10
2018-10-06T17:20:07.082Z,19.10
2018-10-06T17:22:36.027Z,19.00
2018-10-06T17:25:05.077Z,19.00
2018-10-06T17:27:34.236Z,18.90
2018-10-06T17:30:03.179Z,18.90
2018-10-06T17:32:32.142Z,18.80
2018-10-06T17:35:01.145Z,18.80
2018-10-06T17:37:30.150Z,18.80
2018-10-06T17:39:59.188Z,18.70
2018-10-06T17:42:28.134Z,18.70
2018-10-06T17:44:57.116Z,18.60
2018-10-06T17:47:26.075Z,18.60
2018-10-06T17:49:55.104Z,18.50
2018-10-06T17:52:24.559Z,18.50
2018-10-06T17:54:53.519Z,18.40
2018-10-06T17:57:22.580Z,18.40
2018-10-06T17:59:51.673Z,18.40
2018-10-06T18:02:20.621Z,18.30
2018-10-06T18:04:49.696Z,18.30
2018-10-06T18:07:18.829Z,18.20
2018-10-06T18:09:47.797Z,18.20
2018-10-06T18:12:16.785Z,18.10
2018-10-06T18:14:45.741Z,18.10
2018-10-06T18:17:14.693Z,18.00
2018-10-06T18:19:43.671Z,17.90
2018-10-06T18:22:12.652Z,17.90
2018-10-06T18:24:41.595Z,17.80
2018-10-06T18:27:10.608Z,17.80
2018-10-06T18:29:39.779Z,17.70
2018-10-06T18:32:08.926Z,17.60
2018-10-06T18:34:37.898Z,17.60
2018-10-06T18:37:06.969Z,17.50
2018-10-06T18:39:35.993Z,17.50
2018-10-06T18:42:05.002Z,17.40
2018-10-06T18:44:33.953Z,17.40
2018-10-06T18:47:02.934Z,17.30
2018-10-06T18:49:31.925Z,17.20
2018-10-06T18:52:00.958Z,17.20
2018-10-06T18:54:29.946Z,17.10
2018-10-06T18:56:58.925Z,17.10
2018-10-06T18:59:28.191Z,17.00
2018-10-06T19:01:57.521Z,17.00
2018-10-06T19:04:26.797Z,17.00
2018-10-06T19:06:56.148Z,17.00
2018-10-06T19:09:25.409Z,17.00
2018-10-06T19:11:54.699Z,17.00
2018-10-06T19:14:23.944Z,17.00
2018-10-06T19:16:53.267Z,17.00
2018-10-06T19:19:22.522Z,17.00
2018-10-06T19:21:51.763Z,17.00
2018-10-06T19:24:21.158Z,17.00
2018-10-06T19:26:50.620Z,16.90
2018-10-06T19:29:19.976Z,16.90
2018-10-06T19:31:49.309Z,16.90
2018-10-06T19:34:18.576Z,16.90
2018-10-06T19:36:47.916Z,16.90
2018-10-06T19:39:17.242Z,16.80
2018-10-06T19:41:46.587Z,16.90
2018-10-06T19:44:15.926Z,16.90
2018-10-06T19:46:45.162Z,17.00
2018-10-06T19:49:14.440Z,17.00
2018-10-06T19:51:43.801Z,17.10
2018-10-06T19:54:13.339Z,17.10
2018-10-06T19:56:42.567Z,17.10
2018-10-06T19:59:11.790Z,17.10
2018-10-06T20:01:41.079Z,17.10
2018-10-06T20:04:10.408Z,17.00
2018-10-06T20:06:39.944Z,17.00
2018-10-06T20:09:10.541Z,17.00
2018-10-06T20:11:40.104Z,17.00
2018-10-06T20:14:09.363Z,17.10
2018-10-06T20:16:38.714Z,17.10
2018-10-06T20:19:08.033Z,17.20
2018-10-06T20:21:37.519Z,17.20
2018-10-06T20:24:13.141Z,17.20
2018-10-06T20:26:42.161Z,17.30
2018-10-06T20:29:11.227Z,17.30
2018-10-06T20:31:40.205Z,17.30
2018-10-06T20:34:09.221Z,17.30
2018-10-06T20:36:38.203Z,17.40
2018-10-06T20:39:07.595Z,17.50
2018-10-06T20:41:36.504Z,17.50
2018-10-06T20:44:05.818Z,17.60
2018-10-06T20:46:34.921Z,17.50
2018-10-06T20:49:03.869Z,17.50
2018-10-06T20:51:32.842Z,17.50
2018-10-06T20:54:01.797Z,17.50
2018-10-06T20:56:30.757Z,17.50
2018-10-06T20:58:59.788Z,17.50
2018-10-06T21:01:28.711Z,17.40
2018-10-06T21:03:57.653Z,17.50
2018-10-06T21:06:26.599Z,17.50
2018-10-06T21:08:55.520Z,17.50
2018-10-06T21:11:24.544Z,17.50
2018-10-06T21:13:53.676Z,17.60
2018-10-06T21:16:22.664Z,17.60
2018-10-06T21:18:51.606Z,17.60
2018-10-06T21:21:20.652Z,17.60
2018-10-06T21:23:49.576Z,17.50
2018-10-06T21:26:18.543Z,17.50
2018-10-06T21:28:47.566Z,17.40
2018-10-06T21:31:16.676Z,17.40
2018-10-06T21:33:45.777Z,17.30
2018-10-06T21:36:14.748Z,17.20
2018-10-06T21:38:43.759Z,17.20
2018-10-06T21:41:12.874Z,17.10
2018-10-06T21:43:41.993Z,17.10
2018-10-06T21:46:10.947Z,17.10
2018-10-06T21:48:39.922Z,17.10
2018-10-06T21:51:08.863Z,17.00
2018-10-06T21:53:37.838Z,17.10
2018-10-06T21:56:06.801Z,17.00
2018-10-06T21:58:35.803Z,17.00
2018-10-06T22:01:14.591Z,17.00
2018-10-06T22:03:43.531Z,17.00
2018-10-06T22:06:12.485Z,17.00
2018-10-06T22:08:41.545Z,17.00
2018-10-06T22:11:10.645Z,16.90
2018-10-06T22:13:39.645Z,17.00
2018-10-06T22:16:08.659Z,16.90
2018-10-06T22:18:37.571Z,16.90
2018-10-06T22:21:06.575Z,16.90
2018-10-06T22:23:35.538Z,16.80
2018-10-06T22:26:04.617Z,16.80
2018-10-06T22:28:33.586Z,16.80
2018-10-06T22:31:02.564Z,16.80
2018-10-06T22:33:31.500Z,16.70
2018-10-06T22:36:00.426Z,16.60
2018-10-06T22:38:29.368Z,16.60
2018-10-06T22:40:58.328Z,16.50
2018-10-06T22:43:27.326Z,16.50
2018-10-06T22:45:56.455Z,16.40
2018-10-06T22:48:25.486Z,16.30
2018-10-06T22:50:54.462Z,16.30
2018-10-06T22:53:23.373Z,16.30
2018-10-06T22:55:52.314Z,16.20
2018-10-06T22:58:21.259Z,16.20
2018-10-06T23:00:50.566Z,16.20
2018-10-06T23:03:19.591Z,16.20
2018-10-06T23:05:48.682Z,16.20
2018-10-06T23:08:17.605Z,16.20
2018-10-06T23:10:46.577Z,16.20
2018-10-06T23:13:15.482Z,16.20
2018-10-06T23:15:44.418Z,16.20
2018-10-06T23:18:13.382Z,16.10
2018-10-06T23:20:42.359Z,16.10
2018-10-06T23:23:11.299Z,16.00
2018-10-06T23:25:40.262Z,15.90
2018-10-06T23:28:09.217Z,15.90
2018-10-06T23:30:38.190Z,15.80
2018-10-06T23:33:07.167Z,15.80
2018-10-06T23:35:36.085Z,15.70
2018-10-06T23:38:05.025Z,15.60
2018-10-06T23:40:33.948Z,15.60
2018-10-06T23:43:02.891Z,15.50
2018-10-06T23:45:31.930Z,15.50
2018-10-06T23:48:00.859Z,15.40
2018-10-06T23:50:29.859Z,15.40
2018-10-06T23:52:58.812Z,15.40
2018-10-06T23:55:27.793Z,15.30
2018-10-06T23:57:56.753Z,15.30
